sensor_id;sensor_type;location;lat;lon;timestamp;temperature;humidity
1379;DHT22;683;48.738;9.226;2022-12-18T00:00:02;-8.70;99.90
1379;DHT22;683;48.738;9.226;2022-12-18T00:02:39;-8.80;99.90
1379;DHT22;683;48.738;9.226;2022-12-18T00:05:07;-8.70;99.90
1379;DHT22;683;48.738;9.226;2022-12-18T00:07:35;-8.80;99.90
1379;DHT22;683;48.738;9.226;2022-12-18T00:10:03;-8.80;99.90
1379;DHT22;683;48.738;9.226;2022-12-18T00:12:31;-8.80;99.90
1379;DHT22;683;48.738;9.226;2022-12-18T00:14:59;-8.90;99.90
1379;DHT22;683;48.738;9.226;2022-12-18T00:17:26;-8.90;99.90
1379;DHT22;683;48.738;9.226;2022-12-18T00:19:54;-8.90;99.90
1379;DHT22;683;48.738;9.226;2022-12-18T00:22:21;-8.90;99.90
1379;DHT22;683;48.738;9.226;2022-12-18T00:24:48;-8.80;99.90
1379;DHT22;683;48.738;9.226;2022-12-18T00:27:15;-8.80;99.90
1379;DHT22;683;48.738;9.226;2022-12-18T00:29:42;-8.80;99.90
1379;DHT22;683;48.738;9.226;2022-12-18T00:32:11;-8.90;99.90
1379;DHT22;683;48.738;9.226;2022-12-18T00:34:39;-8.90;99.90
1379;DHT22;683;48.738;9.226;2022-12-18T00:37:06;-8.90;99.90
1379;DHT22;683;48.738;9.226;2022-12-18T00:39:34;-8.90;99.90
1379;DHT22;683;48.738;9.226;2022-12-18T00:42:01;-8.90;99.90
1379;DHT22;683;48.738;9.226;2022-12-18T00:44:45;-9.00;99.90
1379;DHT22;683;48.738;9.226;2022-12-18T00:47:14;-9.10;99.90
1379;DHT22;683;48.738;9.226;2022-12-18T00:49:41;-9.10;99.90
1379;DHT22;683;48.738;9.226;2022-12-18T00:52:08;-9.20;99.90
1379;DHT22;683;48.738;9.226;2022-12-18T00:54:35;-9.10;99.90
1379;DHT22;683;48.738;9.226;2022-12-18T00:57:03;-9.20;99.90
1379;DHT22;683;48.738;9.226;2022-12-18T00:59:30;-9.20;99.90
1379;DHT22;683;48.738;9.226;2022-12-18T01:01:57;-9.20;99.90
1379;DHT22;683;48.738;9.226;2022-12-18T01:04:26;-9.20;99.90
1379;DHT22;683;48.738;9.226;2022-12-18T01:06:54;-9.20;99.90
1379;DHT22;683;48.738;9.226;2022-12-18T01:09:21;-9.10;99.90
1379;DHT22;683;48.738;9.226;2022-12-18T01:11:50;-9.10;99.90
1379;DHT22;683;48.738;9.226;2022-12-18T01:14:17;-9.00;99.90
1379;DHT22;683;48.738;9.226;2022-12-18T01:16:44;-9.10;99.90
1379;DHT22;683;48.738;9.226;2022-12-18T01:19:12;-9.10;99.90
1379;DHT22;683;48.738;9.226;2022-12-18T01:21:40;-9.20;99.90
1379;DHT22;683;48.738;9.226;2022-12-18T01:24:10;-9.20;99.90
1379;DHT22;683;48.738;9.226;2022-12-18T01:26:38;-9.30;99.90
1379;DHT22;683;48.738;9.226;2022-12-18T01:29:05;-9.30;99.90
1379;DHT22;683;48.738;9.226;2022-12-18T01:31:33;-9.40;99.90
1379;DHT22;683;48.738;9.226;2022-12-18T01:34:02;-9.40;99.90
1379;DHT22;683;48.738;9.226;2022-12-18T01:36:31;-9.30;99.90
1379;DHT22;683;48.738;9.226;2022-12-18T01:39:03;-9.40;99.90
1379;DHT22;683;48.738;9.226;2022-12-18T01:41:31;-9.40;99.90
1379;DHT22;683;48.738;9.226;2022-12-18T01:47:14;-9.40;99.90
1379;DHT22;683;48.738;9.226;2022-12-18T01:49:42;-9.40;99.90
1379;DHT22;683;48.738;9.226;2022-12-18T01:52:09;-9.30;99.90
1379;DHT22;683;48.738;9.226;2022-12-18T01:54:38;-9.30;99.90
1379;DHT22;683;48.738;9.226;2022-12-18T01:57:05;-9.20;99.90
1379;DHT22;683;48.738;9.226;2022-12-18T01:59:33;-9.10;99.90
1379;DHT22;683;48.738;9.226;2022-12-18T02:02:02;-9.00;99.90
1379;DHT22;683;48.738;9.226;2022-12-18T02:04:30;-8.90;99.90
1379;DHT22;683;48.738;9.226;2022-12-18T02:07:02;-8.90;99.90
1379;DHT22;683;48.738;9.226;2022-12-18T02:09:35;-8.90;99.90
1379;DHT22;683;48.738;9.226;2022-12-18T02:12:16;-8.90;99.90
1379;DHT22;683;48.738;9.226;2022-12-18T02:14:48;-8.80;99.90
1379;DHT22;683;48.738;9.226;2022-12-18T02:17:22;-8.70;99.90
1379;DHT22;683;48.738;9.226;2022-12-18T02:20:02;-8.60;99.90
1379;DHT22;683;48.738;9.226;2022-12-18T02:22:39;-8.50;99.90
1379;DHT22;683;48.738;9.226;2022-12-18T02:25:22;-8.50;99.90
1379;DHT22;683;48.738;9.226;2022-12-18T02:27:58;-8.50;99.90
1379;DHT22;683;48.738;9.226;2022-12-18T02:30:27;-8.40;99.90
1379;DHT22;683;48.738;9.226;2022-12-18T02:32:58;-8.40;99.90
1379;DHT22;683;48.738;9.226;2022-12-18T02:35:29;-8.40;99.90
1379;DHT22;683;48.738;9.226;2022-12-18T02:37:59;-8.40;99.90
1379;DHT22;683;48.738;9.226;2022-12-18T02:40:30;-8.40;99.90
1379;DHT22;683;48.738;9.226;2022-12-18T02:43:07;-8.40;99.90
1379;DHT22;683;48.738;9.226;2022-12-18T02:45:35;-8.40;99.90
1379;DHT22;683;48.738;9.226;2022-12-18T02:48:03;-8.40;99.90
1379;DHT22;683;48.738;9.226;2022-12-18T02:50:38;-8.40;99.90
1379;DHT22;683;48.738;9.226;2022-12-18T02:53:14;-8.50;99.90
1379;DHT22;683;48.738;9.226;2022-12-18T02:55:58;-8.50;99.90
1379;DHT22;683;48.738;9.226;2022-12-18T02:58:34;-8.50;99.90
1379;DHT22;683;48.738;9.226;2022-12-18T03:01:16;-8.50;99.90
1379;DHT22;683;48.738;9.226;2022-12-18T03:03:48;-8.60;99.90
1379;DHT22;683;48.738;9.226;2022-12-18T03:06:22;-8.60;99.90
1379;DHT22;683;48.738;9.226;2022-12-18T03:08:54;-8.70;99.90
1379;DHT22;683;48.738;9.226;2022-12-18T03:11:25;-8.70;99.90
1379;DHT22;683;48.738;9.226;2022-12-18T03:14:10;-8.70;99.90
1379;DHT22;683;48.738;9.226;2022-12-18T03:16:40;-8.70;99.90
1379;DHT22;683;48.738;9.226;2022-12-18T03:19:13;-8.70;99.90
1379;DHT22;683;48.738;9.226;2022-12-18T03:21:45;-8.70;99.90
1379;DHT22;683;48.738;9.226;2022-12-18T03:24:15;-8.70;99.90
1379;DHT22;683;48.738;9.226;2022-12-18T03:26:47;-8.70;99.90
1379;DHT22;683;48.738;9.226;2022-12-18T03:29:22;-8.80;99.90
1379;DHT22;683;48.738;9.226;2022-12-18T03:31:58;-8.80;99.90
1379;DHT22;683;48.738;9.226;2022-12-18T03:34:31;-9.00;99.90
1379;DHT22;683;48.738;9.226;2022-12-18T03:37:05;-9.00;99.90
1379;DHT22;683;48.738;9.226;2022-12-18T03:39:33;-9.00;99.90
1379;DHT22;683;48.738;9.226;2022-12-18T03:42:05;-9.10;99.90
1379;DHT22;683;48.738;9.226;2022-12-18T03:44:45;-9.10;99.90
1379;DHT22;683;48.738;9.226;2022-12-18T03:47:21;-9.20;99.90
1379;DHT22;683;48.738;9.226;2022-12-18T03:49:57;-9.20;99.90
1379;DHT22;683;48.738;9.226;2022-12-18T03:52:29;-9.30;99.90
1379;DHT22;683;48.738;9.226;2022-12-18T03:54:59;-9.40;99.90
1379;DHT22;683;48.738;9.226;2022-12-18T03:57:29;-9.40;99.90
1379;DHT22;683;48.738;9.226;2022-12-18T04:00:03;-9.50;99.90
1379;DHT22;683;48.738;9.226;2022-12-18T04:02:43;-9.50;99.90
1379;DHT22;683;48.738;9.226;2022-12-18T04:05:15;-9.60;99.90
1379;DHT22;683;48.738;9.226;2022-12-18T04:07:45;-9.60;99.90
1379;DHT22;683;48.738;9.226;2022-12-18T04:10:16;-9.60;99.90
1379;DHT22;683;48.738;9.226;2022-12-18T04:12:44;-9.70;99.90
1379;DHT22;683;48.738;9.226;2022-12-18T04:15:15;-9.70;99.90
1379;DHT22;683;48.738;9.226;2022-12-18T04:17:47;-9.70;99.90
1379;DHT22;683;48.738;9.226;2022-12-18T04:20:18;-9.80;99.90
1379;DHT22;683;48.738;9.226;2022-12-18T04:22:45;-9.80;99.90
1379;DHT22;683;48.738;9.226;2022-12-18T04:25:13;-9.80;99.90
1379;DHT22;683;48.738;9.226;2022-12-18T04:27:53;-9.80;99.90
1379;DHT22;683;48.738;9.226;2022-12-18T04:30:21;-9.90;99.90
1379;DHT22;683;48.738;9.226;2022-12-18T04:32:48;-9.90;99.90
1379;DHT22;683;48.738;9.226;2022-12-18T04:35:16;-10.00;99.90
1379;DHT22;683;48.738;9.226;2022-12-18T04:37:44;-10.00;99.90
1379;DHT22;683;48.738;9.226;2022-12-18T04:40:12;-10.00;99.90
1379;DHT22;683;48.738;9.226;2022-12-18T04:42:43;-10.10;99.90
1379;DHT22;683;48.738;9.226;2022-12-18T04:45:10;-10.10;99.90
1379;DHT22;683;48.738;9.226;2022-12-18T04:47:39;-10.10;99.90
1379;DHT22;683;48.738;9.226;2022-12-18T04:50:07;-10.10;99.90
1379;DHT22;683;48.738;9.226;2022-12-18T04:52:34;-10.10;99.90
1379;DHT22;683;48.738;9.226;2022-12-18T04:55:01;-10.20;99.90
1379;DHT22;683;48.738;9.226;2022-12-18T04:57:29;-10.20;99.90
1379;DHT22;683;48.738;9.226;2022-12-18T04:59:56;-10.20;99.90
1379;DHT22;683;48.738;9.226;2022-12-18T05:02:23;-10.30;99.90
1379;DHT22;683;48.738;9.226;2022-12-18T05:04:52;-10.30;99.90
1379;DHT22;683;48.738;9.226;2022-12-18T05:07:19;-10.40;99.90
1379;DHT22;683;48.738;9.226;2022-12-18T05:09:46;-10.40;99.90
1379;DHT22;683;48.738;9.226;2022-12-18T05:12:13;-10.40;99.90
1379;DHT22;683;48.738;9.226;2022-12-18T05:14:40;-10.40;99.90
1379;DHT22;683;48.738;9.226;2022-12-18T05:17:08;-10.50;99.90
1379;DHT22;683;48.738;9.226;2022-12-18T05:19:38;-10.60;99.90
1379;DHT22;683;48.738;9.226;2022-12-18T05:22:09;-10.60;99.90
1379;DHT22;683;48.738;9.226;2022-12-18T05:24:36;-10.70;99.90
1379;DHT22;683;48.738;9.226;2022-12-18T05:27:04;-10.80;99.90
1379;DHT22;683;48.738;9.226;2022-12-18T05:29:31;-10.80;99.90
1379;DHT22;683;48.738;9.226;2022-12-18T05:31:58;-10.80;99.90
1379;DHT22;683;48.738;9.226;2022-12-18T05:34:25;-10.90;99.90
1379;DHT22;683;48.738;9.226;2022-12-18T05:36:53;-10.90;99.90
1379;DHT22;683;48.738;9.226;2022-12-18T05:39:21;-10.90;99.90
1379;DHT22;683;48.738;9.226;2022-12-18T05:41:48;-10.80;99.90
1379;DHT22;683;48.738;9.226;2022-12-18T05:44:16;-10.80;99.90
1379;DHT22;683;48.738;9.226;2022-12-18T05:46:43;-10.90;99.90
1379;DHT22;683;48.738;9.226;2022-12-18T05:49:10;-10.90;99.90
1379;DHT22;683;48.738;9.226;2022-12-18T05:51:37;-10.90;99.90
1379;DHT22;683;48.738;9.226;2022-12-18T05:54:04;-10.90;99.90
1379;DHT22;683;48.738;9.226;2022-12-18T05:56:33;-10.90;99.90
1379;DHT22;683;48.738;9.226;2022-12-18T05:59:00;-10.80;99.90
1379;DHT22;683;48.738;9.226;2022-12-18T06:01:27;-10.80;99.90
1379;DHT22;683;48.738;9.226;2022-12-18T06:03:55;-10.90;99.90
1379;DHT22;683;48.738;9.226;2022-12-18T06:06:23;-10.90;99.90
1379;DHT22;683;48.738;9.226;2022-12-18T06:08:51;-10.90;99.90
1379;DHT22;683;48.738;9.226;2022-12-18T06:11:20;-10.80;99.90
1379;DHT22;683;48.738;9.226;2022-12-18T06:13:51;-10.80;99.90
1379;DHT22;683;48.738;9.226;2022-12-18T06:16:19;-10.80;99.90
1379;DHT22;683;48.738;9.226;2022-12-18T06:18:46;-10.80;99.90
1379;DHT22;683;48.738;9.226;2022-12-18T06:21:13;-10.80;99.90
1379;DHT22;683;48.738;9.226;2022-12-18T06:23:40;-10.80;99.90
1379;DHT22;683;48.738;9.226;2022-12-18T06:26:09;-10.80;99.90
1379;DHT22;683;48.738;9.226;2022-12-18T06:28:37;-10.80;99.90
1379;DHT22;683;48.738;9.226;2022-12-18T06:31:06;-10.80;99.90
1379;DHT22;683;48.738;9.226;2022-12-18T06:33:34;-10.70;99.90
1379;DHT22;683;48.738;9.226;2022-12-18T06:36:02;-10.70;99.90
1379;DHT22;683;48.738;9.226;2022-12-18T06:38:31;-10.70;99.90
1379;DHT22;683;48.738;9.226;2022-12-18T06:40:58;-10.70;99.90
1379;DHT22;683;48.738;9.226;2022-12-18T06:43:26;-10.70;99.90
1379;DHT22;683;48.738;9.226;2022-12-18T06:46:00;-10.70;99.90
1379;DHT22;683;48.738;9.226;2022-12-18T06:48:29;-10.70;99.90
1379;DHT22;683;48.738;9.226;2022-12-18T06:50:57;-10.70;99.90
1379;DHT22;683;48.738;9.226;2022-12-18T06:53:25;-10.70;99.90
1379;DHT22;683;48.738;9.226;2022-12-18T06:55:52;-10.70;99.90
1379;DHT22;683;48.738;9.226;2022-12-18T06:58:20;-10.70;99.90
1379;DHT22;683;48.738;9.226;2022-12-18T07:00:47;-10.70;99.90
1379;DHT22;683;48.738;9.226;2022-12-18T07:03:14;-10.70;99.90
1379;DHT22;683;48.738;9.226;2022-12-18T07:05:42;-10.60;99.90
1379;DHT22;683;48.738;9.226;2022-12-18T07:08:10;-10.70;99.90
1379;DHT22;683;48.738;9.226;2022-12-18T07:10:41;-10.70;99.90
1379;DHT22;683;48.738;9.226;2022-12-18T07:13:09;-10.70;99.90
1379;DHT22;683;48.738;9.226;2022-12-18T07:15:36;-10.60;99.90
1379;DHT22;683;48.738;9.226;2022-12-18T07:18:03;-10.60;99.90
1379;DHT22;683;48.738;9.226;2022-12-18T07:20:31;-10.60;99.90
1379;DHT22;683;48.738;9.226;2022-12-18T07:23:01;-10.50;99.90
1379;DHT22;683;48.738;9.226;2022-12-18T07:25:28;-10.40;99.90
1379;DHT22;683;48.738;9.226;2022-12-18T07:27:56;-10.40;99.90
1379;DHT22;683;48.738;9.226;2022-12-18T07:30:23;-10.30;99.90
1379;DHT22;683;48.738;9.226;2022-12-18T07:32:50;-10.30;99.90
1379;DHT22;683;48.738;9.226;2022-12-18T07:35:17;-10.20;99.90
1379;DHT22;683;48.738;9.226;2022-12-18T07:37:45;-10.10;99.90
1379;DHT22;683;48.738;9.226;2022-12-18T07:40:14;-10.10;99.90
1379;DHT22;683;48.738;9.226;2022-12-18T07:42:41;-9.90;99.90
1379;DHT22;683;48.738;9.226;2022-12-18T07:45:09;-9.90;99.90
1379;DHT22;683;48.738;9.226;2022-12-18T07:47:37;-9.80;99.90
1379;DHT22;683;48.738;9.226;2022-12-18T07:50:05;-9.80;99.90
1379;DHT22;683;48.738;9.226;2022-12-18T07:52:32;-9.70;99.90
1379;DHT22;683;48.738;9.226;2022-12-18T07:55:00;-9.70;99.90
1379;DHT22;683;48.738;9.226;2022-12-18T07:57:30;-9.60;99.90
1379;DHT22;683;48.738;9.226;2022-12-18T07:59:58;-9.50;99.90
1379;DHT22;683;48.738;9.226;2022-12-18T08:02:25;-9.40;99.90
1379;DHT22;683;48.738;9.226;2022-12-18T08:04:52;-9.30;99.90
1379;DHT22;683;48.738;9.226;2022-12-18T08:07:19;-9.30;99.90
1379;DHT22;683;48.738;9.226;2022-12-18T08:09:47;-9.20;99.90
1379;DHT22;683;48.738;9.226;2022-12-18T08:12:40;-9.20;99.90
1379;DHT22;683;48.738;9.226;2022-12-18T08:15:08;-9.00;99.90
1379;DHT22;683;48.738;9.226;2022-12-18T08:17:35;-8.90;99.90
1379;DHT22;683;48.738;9.226;2022-12-18T08:20:03;-8.80;99.90
1379;DHT22;683;48.738;9.226;2022-12-18T08:22:30;-8.70;99.90
1379;DHT22;683;48.738;9.226;2022-12-18T08:24:57;-8.70;99.90
1379;DHT22;683;48.738;9.226;2022-12-18T08:27:24;-8.50;99.90
1379;DHT22;683;48.738;9.226;2022-12-18T08:29:53;-8.40;99.90
1379;DHT22;683;48.738;9.226;2022-12-18T08:32:21;-8.30;99.90
1379;DHT22;683;48.738;9.226;2022-12-18T08:34:48;-8.30;99.90
1379;DHT22;683;48.738;9.226;2022-12-18T08:37:15;-8.20;99.90
1379;DHT22;683;48.738;9.226;2022-12-18T08:39:42;-8.10;99.90
1379;DHT22;683;48.738;9.226;2022-12-18T08:42:10;-8.00;99.90
1379;DHT22;683;48.738;9.226;2022-12-18T08:44:56;-7.90;99.90
1379;DHT22;683;48.738;9.226;2022-12-18T08:47:23;-7.80;99.90
1379;DHT22;683;48.738;9.226;2022-12-18T08:49:51;-7.80;99.90
1379;DHT22;683;48.738;9.226;2022-12-18T08:52:19;-7.70;99.90
1379;DHT22;683;48.738;9.226;2022-12-18T08:54:46;-7.60;99.90
1379;DHT22;683;48.738;9.226;2022-12-18T08:57:13;-7.50;99.90
1379;DHT22;683;48.738;9.226;2022-12-18T08:59:40;-7.50;99.90
1379;DHT22;683;48.738;9.226;2022-12-18T09:02:10;-7.40;99.90
1379;DHT22;683;48.738;9.226;2022-12-18T09:04:37;-7.30;99.90
1379;DHT22;683;48.738;9.226;2022-12-18T09:07:05;-7.30;99.90
1379;DHT22;683;48.738;9.226;2022-12-18T09:09:33;-7.20;99.90
1379;DHT22;683;48.738;9.226;2022-12-18T09:12:00;-7.20;99.90
1379;DHT22;683;48.738;9.226;2022-12-18T09:14:27;-7.20;99.90
1379;DHT22;683;48.738;9.226;2022-12-18T09:16:54;-7.20;99.90
1379;DHT22;683;48.738;9.226;2022-12-18T09:19:23;-7.10;99.90
1379;DHT22;683;48.738;9.226;2022-12-18T09:21:50;-6.90;99.90
1379;DHT22;683;48.738;9.226;2022-12-18T09:24:17;-6.90;99.90
1379;DHT22;683;48.738;9.226;2022-12-18T09:26:45;-6.90;99.90
1379;DHT22;683;48.738;9.226;2022-12-18T09:29:12;-6.80;99.90
1379;DHT22;683;48.738;9.226;2022-12-18T09:31:39;-6.90;99.90
1379;DHT22;683;48.738;9.226;2022-12-18T09:34:07;-6.90;99.90
1379;DHT22;683;48.738;9.226;2022-12-18T09:36:35;-6.80;99.90
1379;DHT22;683;48.738;9.226;2022-12-18T09:39:04;-6.80;99.90
1379;DHT22;683;48.738;9.226;2022-12-18T09:41:42;-6.70;99.90
1379;DHT22;683;48.738;9.226;2022-12-18T09:44:18;-6.60;99.90
1379;DHT22;683;48.738;9.226;2022-12-18T09:46:49;-6.50;99.90
1379;DHT22;683;48.738;9.226;2022-12-18T09:49:22;-6.50;99.90
1379;DHT22;683;48.738;9.226;2022-12-18T09:51:57;-6.30;99.90
1379;DHT22;683;48.738;9.226;2022-12-18T09:54:31;-6.30;99.90
1379;DHT22;683;48.738;9.226;2022-12-18T09:57:00;-6.20;99.90
1379;DHT22;683;48.738;9.226;2022-12-18T09:59:33;-6.10;99.90
1379;DHT22;683;48.738;9.226;2022-12-18T10:02:16;-6.10;99.90
1379;DHT22;683;48.738;9.226;2022-12-18T10:04:54;-6.00;99.90
1379;DHT22;683;48.738;9.226;2022-12-18T10:07:32;-5.90;99.90
1379;DHT22;683;48.738;9.226;2022-12-18T10:10:10;-5.60;99.90
1379;DHT22;683;48.738;9.226;2022-12-18T10:12:51;-5.60;99.90
1379;DHT22;683;48.738;9.226;2022-12-18T10:15:26;-5.50;99.90
1379;DHT22;683;48.738;9.226;2022-12-18T10:18:00;-5.50;99.90
1379;DHT22;683;48.738;9.226;2022-12-18T10:20:33;-5.50;99.90
1379;DHT22;683;48.738;9.226;2022-12-18T10:23:08;-5.50;99.90
1379;DHT22;683;48.738;9.226;2022-12-18T10:25:53;-5.60;99.90
1379;DHT22;683;48.738;9.226;2022-12-18T10:28:23;-5.40;99.90
1379;DHT22;683;48.738;9.226;2022-12-18T10:30:51;-5.40;99.90
1379;DHT22;683;48.738;9.226;2022-12-18T10:33:20;-5.30;99.90
1379;DHT22;683;48.738;9.226;2022-12-18T10:35:53;-5.10;99.90
1379;DHT22;683;48.738;9.226;2022-12-18T10:38:24;-5.00;99.90
1379;DHT22;683;48.738;9.226;2022-12-18T10:40:54;-4.90;99.90
1379;DHT22;683;48.738;9.226;2022-12-18T10:43:24;-4.80;99.90
1379;DHT22;683;48.738;9.226;2022-12-18T10:46:00;-4.70;99.90
1379;DHT22;683;48.738;9.226;2022-12-18T10:48:30;-4.70;99.90
1379;DHT22;683;48.738;9.226;2022-12-18T10:50:58;-4.70;99.90
1379;DHT22;683;48.738;9.226;2022-12-18T10:53:28;-4.40;99.90
1379;DHT22;683;48.738;9.226;2022-12-18T10:56:00;-4.40;99.90
1379;DHT22;683;48.738;9.226;2022-12-18T10:58:30;-4.20;99.90
1379;DHT22;683;48.738;9.226;2022-12-18T11:01:05;-4.10;99.90
1379;DHT22;683;48.738;9.226;2022-12-18T11:03:34;-4.10;99.90
1379;DHT22;683;48.738;9.226;2022-12-18T11:06:05;-4.00;99.90
1379;DHT22;683;48.738;9.226;2022-12-18T11:08:34;-3.90;99.90
1379;DHT22;683;48.738;9.226;2022-12-18T11:11:02;-4.00;99.90
1379;DHT22;683;48.738;9.226;2022-12-18T11:13:31;-4.00;99.90
1379;DHT22;683;48.738;9.226;2022-12-18T11:15:59;-4.00;99.90
1379;DHT22;683;48.738;9.226;2022-12-18T11:18:28;-4.00;99.90
1379;DHT22;683;48.738;9.226;2022-12-18T11:20:58;-3.90;99.90
1379;DHT22;683;48.738;9.226;2022-12-18T11:23:27;-3.90;99.90
1379;DHT22;683;48.738;9.226;2022-12-18T11:25:58;-3.90;99.90
1379;DHT22;683;48.738;9.226;2022-12-18T11:28:35;-3.90;99.90
1379;DHT22;683;48.738;9.226;2022-12-18T11:31:27;-3.70;99.90
1379;DHT22;683;48.738;9.226;2022-12-18T11:34:01;-3.70;99.90
1379;DHT22;683;48.738;9.226;2022-12-18T11:36:32;-3.70;99.90
1379;DHT22;683;48.738;9.226;2022-12-18T11:39:06;-3.60;99.90
1379;DHT22;683;48.738;9.226;2022-12-18T11:41:41;-3.50;99.90
1379;DHT22;683;48.738;9.226;2022-12-18T11:44:35;-3.50;99.90
1379;DHT22;683;48.738;9.226;2022-12-18T11:47:12;-3.40;99.90
1379;DHT22;683;48.738;9.226;2022-12-18T11:49:41;-3.40;99.90
1379;DHT22;683;48.738;9.226;2022-12-18T11:52:15;-3.40;99.90
1379;DHT22;683;48.738;9.226;2022-12-18T11:54:44;-3.40;99.90
1379;DHT22;683;48.738;9.226;2022-12-18T11:57:22;-3.20;99.90
1379;DHT22;683;48.738;9.226;2022-12-18T11:59:59;-3.20;99.90
1379;DHT22;683;48.738;9.226;2022-12-18T12:03:07;-3.20;99.90
1379;DHT22;683;48.738;9.226;2022-12-18T12:05:45;-3.10;99.90
1379;DHT22;683;48.738;9.226;2022-12-18T12:08:23;-3.10;99.90
1379;DHT22;683;48.738;9.226;2022-12-18T12:10:59;-3.10;99.90
1379;DHT22;683;48.738;9.226;2022-12-18T12:13:40;-3.10;99.90
1379;DHT22;683;48.738;9.226;2022-12-18T12:16:17;-3.10;99.90
1379;DHT22;683;48.738;9.226;2022-12-18T12:18:55;-2.90;99.90
1379;DHT22;683;48.738;9.226;2022-12-18T12:21:32;-3.00;99.90
1379;DHT22;683;48.738;9.226;2022-12-18T12:24:08;-2.90;99.90
1379;DHT22;683;48.738;9.226;2022-12-18T12:26:42;-2.90;99.90
1379;DHT22;683;48.738;9.226;2022-12-18T12:29:28;-2.80;99.90
1379;DHT22;683;48.738;9.226;2022-12-18T12:32:07;-2.60;99.90
1379;DHT22;683;48.738;9.226;2022-12-18T12:34:47;-2.80;99.90
1379;DHT22;683;48.738;9.226;2022-12-18T12:37:25;-2.60;99.90
1379;DHT22;683;48.738;9.226;2022-12-18T12:39:56;-2.60;99.90
1379;DHT22;683;48.738;9.226;2022-12-18T12:42:30;-2.70;99.90
1379;DHT22;683;48.738;9.226;2022-12-18T12:45:21;-2.60;99.90
1379;DHT22;683;48.738;9.226;2022-12-18T12:47:50;-2.50;99.90
1379;DHT22;683;48.738;9.226;2022-12-18T12:50:19;-2.40;99.90
1379;DHT22;683;48.738;9.226;2022-12-18T12:52:50;-2.30;99.90
1379;DHT22;683;48.738;9.226;2022-12-18T12:55:21;-2.30;99.90
1379;DHT22;683;48.738;9.226;2022-12-18T12:57:57;-2.30;99.90
1379;DHT22;683;48.738;9.226;2022-12-18T13:00:30;-2.00;99.90
1379;DHT22;683;48.738;9.226;2022-12-18T13:03:08;-2.00;99.90
1379;DHT22;683;48.738;9.226;2022-12-18T13:05:43;-2.00;99.90
1379;DHT22;683;48.738;9.226;2022-12-18T13:08:23;-2.00;99.90
1379;DHT22;683;48.738;9.226;2022-12-18T13:10:50;-1.90;99.90
1379;DHT22;683;48.738;9.226;2022-12-18T13:13:49;-1.80;99.90
1379;DHT22;683;48.738;9.226;2022-12-18T13:16:19;-1.70;99.90
1379;DHT22;683;48.738;9.226;2022-12-18T13:18:50;-1.70;99.90
1379;DHT22;683;48.738;9.226;2022-12-18T13:21:22;-1.60;99.90
1379;DHT22;683;48.738;9.226;2022-12-18T13:23:51;-1.70;99.90
1379;DHT22;683;48.738;9.226;2022-12-18T13:26:32;-1.70;99.90
1379;DHT22;683;48.738;9.226;2022-12-18T13:29:01;-1.60;99.90
1379;DHT22;683;48.738;9.226;2022-12-18T13:31:58;-1.50;99.90
1379;DHT22;683;48.738;9.226;2022-12-18T13:34:27;-1.40;99.90
1379;DHT22;683;48.738;9.226;2022-12-18T13:36:57;-1.30;99.90
1379;DHT22;683;48.738;9.226;2022-12-18T13:39:44;-1.30;99.90
1379;DHT22;683;48.738;9.226;2022-12-18T13:42:31;-1.10;99.90
1379;DHT22;683;48.738;9.226;2022-12-18T13:45:42;-1.00;99.90
1379;DHT22;683;48.738;9.226;2022-12-18T13:48:17;-0.80;99.90
1379;DHT22;683;48.738;9.226;2022-12-18T13:50:52;-0.70;99.90
1379;DHT22;683;48.738;9.226;2022-12-18T13:53:21;-0.70;99.90
1379;DHT22;683;48.738;9.226;2022-12-18T13:55:50;-0.70;99.90
1379;DHT22;683;48.738;9.226;2022-12-18T13:58:17;-0.70;99.90
1379;DHT22;683;48.738;9.226;2022-12-18T14:00:44;-0.70;99.90
1379;DHT22;683;48.738;9.226;2022-12-18T14:03:19;-0.70;99.90
1379;DHT22;683;48.738;9.226;2022-12-18T14:05:56;-0.60;99.90
1379;DHT22;683;48.738;9.226;2022-12-18T14:08:29;-0.60;99.90
1379;DHT22;683;48.738;9.226;2022-12-18T14:10:59;-0.60;99.90
1379;DHT22;683;48.738;9.226;2022-12-18T14:13:30;-0.70;99.90
1379;DHT22;683;48.738;9.226;2022-12-18T14:16:00;-0.70;99.90
1379;DHT22;683;48.738;9.226;2022-12-18T14:18:33;-0.70;99.90
1379;DHT22;683;48.738;9.226;2022-12-18T14:21:04;-1.00;99.90
1379;DHT22;683;48.738;9.226;2022-12-18T14:23:34;-1.00;99.90
1379;DHT22;683;48.738;9.226;2022-12-18T14:26:03;-1.20;99.90
1379;DHT22;683;48.738;9.226;2022-12-18T14:28:46;-1.40;99.90
1379;DHT22;683;48.738;9.226;2022-12-18T14:31:18;-1.50;99.90
1379;DHT22;683;48.738;9.226;2022-12-18T14:33:47;-1.60;99.90
1379;DHT22;683;48.738;9.226;2022-12-18T14:36:17;-1.70;99.90
1379;DHT22;683;48.738;9.226;2022-12-18T14:38:48;-1.90;99.90
1379;DHT22;683;48.738;9.226;2022-12-18T14:41:17;-2.00;99.90
1379;DHT22;683;48.738;9.226;2022-12-18T14:43:47;-2.00;99.90
1379;DHT22;683;48.738;9.226;2022-12-18T14:46:29;-2.10;99.90
1379;DHT22;683;48.738;9.226;2022-12-18T14:49:01;-2.30;99.90
1379;DHT22;683;48.738;9.226;2022-12-18T14:51:30;-2.40;99.90
1379;DHT22;683;48.738;9.226;2022-12-18T14:53:59;-2.40;99.90
1379;DHT22;683;48.738;9.226;2022-12-18T14:56:29;-2.40;99.90
1379;DHT22;683;48.738;9.226;2022-12-18T14:58:59;-2.60;99.90
1379;DHT22;683;48.738;9.226;2022-12-18T15:01:29;-2.70;99.90
1379;DHT22;683;48.738;9.226;2022-12-18T15:03:59;-2.80;99.90
1379;DHT22;683;48.738;9.226;2022-12-18T15:06:29;-2.90;99.90
1379;DHT22;683;48.738;9.226;2022-12-18T15:08:58;-3.00;99.90
1379;DHT22;683;48.738;9.226;2022-12-18T15:11:32;-3.10;99.90
1379;DHT22;683;48.738;9.226;2022-12-18T15:16:42;-3.30;99.90
1379;DHT22;683;48.738;9.226;2022-12-18T15:19:11;-3.40;99.90
1379;DHT22;683;48.738;9.226;2022-12-18T15:21:42;-3.40;99.90
1379;DHT22;683;48.738;9.226;2022-12-18T15:24:17;-3.50;99.90
1379;DHT22;683;48.738;9.226;2022-12-18T15:26:45;-3.60;99.90
1379;DHT22;683;48.738;9.226;2022-12-18T15:29:25;-3.60;99.90
1379;DHT22;683;48.738;9.226;2022-12-18T15:32:00;-3.70;99.90
1379;DHT22;683;48.738;9.226;2022-12-18T15:34:30;-3.90;99.90
1379;DHT22;683;48.738;9.226;2022-12-18T15:36:58;-3.90;99.90
1379;DHT22;683;48.738;9.226;2022-12-18T15:39:51;-3.90;99.90
1379;DHT22;683;48.738;9.226;2022-12-18T15:42:18;-3.90;99.90
1379;DHT22;683;48.738;9.226;2022-12-18T15:45:03;-4.00;99.90
1379;DHT22;683;48.738;9.226;2022-12-18T15:47:30;-4.10;99.90
1379;DHT22;683;48.738;9.226;2022-12-18T15:50:00;-4.10;99.90
1379;DHT22;683;48.738;9.226;2022-12-18T15:52:39;-4.10;99.90
1379;DHT22;683;48.738;9.226;2022-12-18T15:55:10;-4.20;99.90
1379;DHT22;683;48.738;9.226;2022-12-18T15:57:57;-4.20;99.90
1379;DHT22;683;48.738;9.226;2022-12-18T16:00:24;-4.10;99.90
1379;DHT22;683;48.738;9.226;2022-12-18T16:02:51;-4.20;99.90
1379;DHT22;683;48.738;9.226;2022-12-18T16:05:21;-4.20;99.90
1379;DHT22;683;48.738;9.226;2022-12-18T16:07:48;-4.30;99.90
1379;DHT22;683;48.738;9.226;2022-12-18T16:10:16;-4.40;99.90
1379;DHT22;683;48.738;9.226;2022-12-18T16:12:44;-4.30;99.90
1379;DHT22;683;48.738;9.226;2022-12-18T16:15:12;-4.30;99.90
1379;DHT22;683;48.738;9.226;2022-12-18T16:17:42;-4.40;99.90
1379;DHT22;683;48.738;9.226;2022-12-18T16:20:13;-4.40;99.90
1379;DHT22;683;48.738;9.226;2022-12-18T16:22:42;-4.40;99.90
1379;DHT22;683;48.738;9.226;2022-12-18T16:25:36;-4.30;99.90
1379;DHT22;683;48.738;9.226;2022-12-18T16:28:05;-4.40;99.90
1379;DHT22;683;48.738;9.226;2022-12-18T16:30:32;-4.40;99.90
1379;DHT22;683;48.738;9.226;2022-12-18T16:32:59;-4.40;99.90
1379;DHT22;683;48.738;9.226;2022-12-18T16:35:26;-4.30;99.90
1379;DHT22;683;48.738;9.226;2022-12-18T16:37:55;-4.30;99.90
1379;DHT22;683;48.738;9.226;2022-12-18T16:40:22;-4.30;99.90
1379;DHT22;683;48.738;9.226;2022-12-18T16:42:50;-4.30;99.90
1379;DHT22;683;48.738;9.226;2022-12-18T16:45:18;-4.20;99.90